Time;durP1;ratioP1;P1;durP2;ratioP2;P2;SDS_P1;SDS_P2;PMS_P1;PMS_P2;Temp;Humidity;BMP_temperature;BMP_pressure;BME280_temperature;BME280_humidity;BME280_pressure;Samples;Min_cycle;Max_cycle;Signal;HPM_P1;HPM_P2
2024/01/02 00:00:34;;;;;;;10.75;4.85;;;;;;;;;;6254869;22;20043;-82
2024/01/02 00:03:06;;;;;;;14.38;5.93;;;;;;;;;;6254914;22;20061;-83
2024/01/02 00:05:35;;;;;;;10.35;4.88;;;;;;;;;;6255955;22;20019;-83
2024/01/02 00:08:04;;;;;;;15.45;5.20;;;;;;;;;;6255823;22;20026;-83
2024/01/02 00:10:30;;;;;;;13.68;4.90;;;;;;;;;;6255425;22;20082;-83
2024/01/02 00:12:58;;;;;;;11.77;4.72;;;;;;;;;;6255391;22;20011;-82
2024/01/02 00:15:24;;;;;;;11.13;4.35;;;;;;;;;;6255185;22;20043;-83
2024/01/02 00:17:50;;;;;;;9.60;4.75;;;;;;;;;;6255381;22;20027;-82
2024/01/02 00:20:17;;;;;;;12.48;4.93;;;;;;;;;;6255671;22;20097;-83
2024/01/02 00:22:45;;;;;;;11.60;4.45;;;;;;;;;;6255770;22;20019;-82
2024/01/02 00:25:11;;;;;;;11.23;4.63;;;;;;;;;;6255676;22;20141;-83
2024/01/02 00:27:37;;;;;;;11.27;4.60;;;;;;;;;;6255537;22;20094;-82
2024/01/02 00:30:04;;;;;;;12.07;4.50;;;;;;;;;;6255461;22;20340;-83
2024/01/02 00:32:30;;;;;;;12.63;4.43;;;;;;;;;;6253437;22;20019;-83
2024/01/02 00:35:00;;;;;;;9.60;4.45;;;;;;;;;;6254951;22;20022;-82
2024/01/02 00:37:29;;;;;;;10.48;4.20;;;;;;;;;;6255071;22;20015;-82
2024/01/02 00:39:55;;;;;;;9.50;4.05;;;;;;;;;;6254812;22;20093;-83
2024/01/02 00:42:23;;;;;;;9.68;4.22;;;;;;;;;;6255190;22;20011;-82
2024/01/02 00:44:55;;;;;;;11.27;4.15;;;;;;;;;;6254077;22;20054;-83
2024/01/02 00:47:21;;;;;;;9.23;3.55;;;;;;;;;;6254842;22;20526;-83
2024/01/02 00:49:51;;;;;;;11.52;3.72;;;;;;;;;;6254504;22;20015;-84
2024/01/02 00:52:17;;;;;;;11.38;3.70;;;;;;;;;;6254169;22;20050;-83
2024/01/02 00:54:51;;;;;;;10.98;3.47;;;;;;;;;;6254337;22;20026;-83
2024/01/02 00:57:35;;;;;;;8.57;3.58;;;;;;;;;;6278701;22;20015;-84
2024/01/02 01:00:20;;;;;;;9.52;3.97;;;;;;;;;;6254238;22;20098;-83
2024/01/02 01:03:14;;;;;;;8.55;4.05;;;;;;;;;;6248537;22;20381;-84
2024/01/02 01:06:03;;;;;;;6.68;2.90;;;;;;;;;;6247131;22;20023;-84
2024/01/02 01:08:38;;;;;;;13.50;3.83;;;;;;;;;;6251216;22;20016;-84
2024/01/02 01:11:04;;;;;;;12.90;3.70;;;;;;;;;;6249194;22;20069;-83
2024/01/02 01:13:30;;;;;;;11.20;3.50;;;;;;;;;;6274862;22;20015;-83
2024/01/02 01:15:58;;;;;;;10.95;3.97;;;;;;;;;;6274268;22;20020;-83
2024/01/02 01:18:25;;;;;;;11.75;3.95;;;;;;;;;;6274585;22;20016;-83
2024/01/02 01:20:51;;;;;;;7.63;3.45;;;;;;;;;;6248080;22;20453;-83
2024/01/02 01:23:17;;;;;;;8.40;3.35;;;;;;;;;;6248994;22;20015;-83
2024/01/02 01:25:43;;;;;;;12.13;3.63;;;;;;;;;;6274080;22;20113;-84
2024/01/02 01:28:09;;;;;;;9.45;3.60;;;;;;;;;;6249207;22;20014;-83
2024/01/02 01:30:36;;;;;;;10.07;3.50;;;;;;;;;;6275632;22;20091;-83
2024/01/02 01:33:02;;;;;;;8.48;3.10;;;;;;;;;;6248564;22;20044;-83
2024/01/02 01:35:28;;;;;;;10.45;3.13;;;;;;;;;;6248415;22;20335;-83
2024/01/02 01:37:54;;;;;;;8.27;3.50;;;;;;;;;;6274387;22;20349;-83
2024/01/02 01:40:20;;;;;;;11.18;3.67;;;;;;;;;;6274313;22;20019;-83
2024/01/02 01:42:46;;;;;;;9.65;3.78;;;;;;;;;;6249543;22;20016;-83
2024/01/02 01:45:12;;;;;;;11.88;4.15;;;;;;;;;;6275737;22;20020;-83
2024/01/02 01:47:38;;;;;;;10.45;3.78;;;;;;;;;;6251065;22;20026;-83
2024/01/02 01:50:05;;;;;;;8.65;3.47;;;;;;;;;;6251034;22;20019;-83
2024/01/02 01:52:32;;;;;;;12.82;3.80;;;;;;;;;;6276005;22;20019;-83
2024/01/02 01:54:59;;;;;;;11.63;3.95;;;;;;;;;;6250782;22;20015;-83
2024/01/02 01:57:25;;;;;;;12.05;4.45;;;;;;;;;;6251297;22;20012;-83
2024/01/02 01:59:52;;;;;;;10.25;4.00;;;;;;;;;;6249988;22;20115;-83
2024/01/02 02:02:18;;;;;;;9.52;3.70;;;;;;;;;;6249399;22;20015;-83
2024/01/02 02:04:45;;;;;;;10.98;4.00;;;;;;;;;;6250489;22;20420;-83
2024/01/02 02:07:12;;;;;;;7.60;3.38;;;;;;;;;;6278084;22;20023;-83
2024/01/02 02:09:38;;;;;;;11.63;3.88;;;;;;;;;;6249991;22;20390;-83
2024/01/02 02:12:04;;;;;;;11.98;3.95;;;;;;;;;;6250185;22;20018;-83
2024/01/02 02:14:30;;;;;;;10.63;3.80;;;;;;;;;;6276133;22;20024;-82
2024/01/02 02:16:57;;;;;;;13.20;3.70;;;;;;;;;;6250875;22;20035;-83
2024/01/02 02:19:23;;;;;;;7.38;3.65;;;;;;;;;;6250784;22;20019;-83
2024/01/02 02:21:50;;;;;;;10.07;3.67;;;;;;;;;;6250055;22;20456;-83
2024/01/02 02:24:17;;;;;;;9.35;3.40;;;;;;;;;;6250784;22;20015;-83
2024/01/02 02:26:43;;;;;;;6.40;3.60;;;;;;;;;;6250075;22;20015;-83
2024/01/02 02:29:09;;;;;;;9.10;3.63;;;;;;;;;;6275489;22;20012;-83
2024/01/02 02:31:35;;;;;;;7.47;4.03;;;;;;;;;;6249905;22;20016;-83
2024/01/02 02:34:01;;;;;;;7.97;3.88;;;;;;;;;;6250669;22;20358;-83
2024/01/02 02:36:27;;;;;;;11.27;3.30;;;;;;;;;;6249964;22;20020;-83
2024/01/02 02:38:53;;;;;;;5.80;3.42;;;;;;;;;;6250250;22;20027;-83
2024/01/02 02:41:19;;;;;;;6.82;3.38;;;;;;;;;;6250373;22;20574;-82
2024/01/02 02:43:45;;;;;;;9.23;3.17;;;;;;;;;;6275696;22;20510;-83
2024/01/02 02:46:11;;;;;;;13.43;4.15;;;;;;;;;;6250495;22;20348;-83
2024/01/02 02:48:37;;;;;;;7.32;3.70;;;;;;;;;;6250865;22;20016;-83
2024/01/02 02:51:04;;;;;;;6.15;3.28;;;;;;;;;;6248749;22;20016;-83
2024/01/02 02:53:30;;;;;;;8.00;3.53;;;;;;;;;;6249939;22;20020;-83
2024/01/02 02:55:56;;;;;;;7.43;3.20;;;;;;;;;;6274669;22;20026;-83
2024/01/02 02:58:22;;;;;;;6.68;3.72;;;;;;;;;;6275271;22;20070;-83
2024/01/02 03:00:48;;;;;;;8.73;3.80;;;;;;;;;;6250546;22;20103;-83
2024/01/02 03:03:14;;;;;;;6.15;3.25;;;;;;;;;;6256262;22;20021;-83
2024/01/02 03:05:40;;;;;;;8.63;3.42;;;;;;;;;;6294311;22;20023;-83
2024/01/02 03:08:06;;;;;;;5.63;3.05;;;;;;;;;;6320865;22;20044;-83
2024/01/02 03:10:32;;;;;;;7.30;3.45;;;;;;;;;;6268955;22;20015;-83
2024/01/02 03:12:58;;;;;;;6.22;3.10;;;;;;;;;;6311489;22;20021;-83
2024/01/02 03:15:25;;;;;;;5.80;3.25;;;;;;;;;;6256011;22;20019;-83
2024/01/02 03:17:51;;;;;;;4.75;3.05;;;;;;;;;;6280990;22;20118;-83
2024/01/02 03:20:17;;;;;;;7.90;2.90;;;;;;;;;;6281080;22;20011;-83
2024/01/02 03:22:43;;;;;;;8.05;4.03;;;;;;;;;;6255060;22;20436;-83
2024/01/02 03:25:09;;;;;;;8.82;3.40;;;;;;;;;;6255477;22;20023;-83
2024/01/02 03:27:35;;;;;;;8.02;3.63;;;;;;;;;;6254339;22;20027;-83
2024/01/02 03:30:01;;;;;;;8.77;3.60;;;;;;;;;;6280800;22;20111;-83
2024/01/02 03:32:27;;;;;;;6.18;3.38;;;;;;;;;;6255214;22;20022;-83
2024/01/02 03:34:53;;;;;;;6.60;3.35;;;;;;;;;;6280406;22;20015;-83
2024/01/02 03:37:20;;;;;;;7.57;3.80;;;;;;;;;;6255201;22;20019;-83
2024/01/02 03:39:46;;;;;;;9.57;3.92;;;;;;;;;;6255030;22;20038;-83
2024/01/02 03:42:12;;;;;;;7.28;3.85;;;;;;;;;;6254894;22;20458;-83
2024/01/02 03:44:38;;;;;;;6.40;3.60;;;;;;;;;;6254177;22;20054;-82
2024/01/02 03:47:04;;;;;;;8.73;4.25;;;;;;;;;;6254249;22;20018;-83
2024/01/02 03:49:30;;;;;;;7.22;3.97;;;;;;;;;;6280776;22;20011;-83
2024/01/02 03:51:59;;;;;;;7.22;4.07;;;;;;;;;;6280390;22;20026;-83
2024/01/02 03:54:25;;;;;;;6.97;4.22;;;;;;;;;;6254691;22;20050;-83
2024/01/02 03:56:51;;;;;;;8.13;4.53;;;;;;;;;;6254318;22;20363;-84
2024/01/02 03:59:17;;;;;;;7.68;5.53;;;;;;;;;;6255022;22;20019;-83
2024/01/02 04:01:44;;;;;;;7.30;5.80;;;;;;;;;;6280080;22;20019;-83
2024/01/02 04:04:10;;;;;;;10.85;5.35;;;;;;;;;;6254372;22;20101;-83
2024/01/02 04:06:36;;;;;;;8.32;5.70;;;;;;;;;;6254468;22;20340;-83
2024/01/02 04:09:02;;;;;;;6.88;4.90;;;;;;;;;;6280649;22;20020;-83
2024/01/02 04:11:28;;;;;;;8.40;5.38;;;;;;;;;;6281022;22;20019;-83
2024/01/02 04:13:54;;;;;;;8.65;5.30;;;;;;;;;;6307872;22;20046;-83
2024/01/02 04:16:20;;;;;;;9.43;4.93;;;;;;;;;;6254795;22;20037;-83
2024/01/02 04:18:50;;;;;;;9.82;5.28;;;;;;;;;;6281143;22;20072;-83
2024/01/02 04:21:16;;;;;;;8.98;5.70;;;;;;;;;;6254897;22;20015;-84
2024/01/02 04:23:44;;;;;;;7.80;5.07;;;;;;;;;;6254839;22;20019;-85
2024/01/02 04:26:11;;;;;;;7.20;4.97;;;;;;;;;;6254187;22;20023;-85
2024/01/02 04:28:37;;;;;;;8.30;4.80;;;;;;;;;;6254687;22;20097;-84
2024/01/02 04:31:08;;;;;;;6.82;4.85;;;;;;;;;;6255181;22;20019;-85
2024/01/02 04:33:34;;;;;;;12.13;5.28;;;;;;;;;;6254351;22;20066;-85
2024/01/02 04:36:00;;;;;;;10.95;5.03;;;;;;;;;;6254504;22;20046;-84
2024/01/02 04:38:28;;;;;;;11.23;5.53;;;;;;;;;;6254651;22;20079;-84
2024/01/02 04:40:57;;;;;;;8.30;4.68;;;;;;;;;;6254471;22;20047;-84
2024/01/02 04:43:27;;;;;;;7.63;5.00;;;;;;;;;;6254806;22;20022;-85
2024/01/02 04:45:53;;;;;;;7.60;4.78;;;;;;;;;;6279576;22;20092;-84
2024/01/02 04:48:19;;;;;;;9.65;5.05;;;;;;;;;;6279723;22;20080;-84
2024/01/02 04:50:46;;;;;;;7.05;4.97;;;;;;;;;;6254264;22;20041;-84
2024/01/02 04:53:12;;;;;;;9.32;4.82;;;;;;;;;;6254753;22;20015;-84
2024/01/02 04:55:38;;;;;;;9.13;4.93;;;;;;;;;;6280135;22;20090;-84
2024/01/02 04:58:04;;;;;;;8.80;4.75;;;;;;;;;;6254496;22;20022;-83
2024/01/02 05:00:30;;;;;;;6.88;4.30;;;;;;;;;;6279418;22;20026;-83
2024/01/02 05:02:57;;;;;;;5.57;4.43;;;;;;;;;;6307590;22;20019;-82
2024/01/02 05:05:23;;;;;;;6.93;4.28;;;;;;;;;;6254717;22;20019;-83
2024/01/02 05:07:49;;;;;;;6.60;4.68;;;;;;;;;;6254971;22;20023;-82
2024/01/02 05:10:16;;;;;;;9.23;4.25;;;;;;;;;;6307527;22;20019;-82
2024/01/02 05:12:42;;;;;;;7.05;4.50;;;;;;;;;;6254666;22;20146;-82
2024/01/02 05:15:08;;;;;;;6.43;5.15;;;;;;;;;;6281072;22;20276;-82
2024/01/02 05:17:34;;;;;;;8.25;5.10;;;;;;;;;;6307363;22;20030;-82
2024/01/02 05:20:00;;;;;;;6.05;4.35;;;;;;;;;;6254080;22;20054;-82
2024/01/02 05:22:26;;;;;;;8.13;4.57;;;;;;;;;;6307067;22;20078;-83
2024/01/02 05:24:52;;;;;;;8.00;4.85;;;;;;;;;;6254302;22;20024;-84
2024/01/02 05:27:19;;;;;;;6.05;4.72;;;;;;;;;;6278956;22;20068;-85
2024/01/02 05:29:46;;;;;;;7.55;4.78;;;;;;;;;;6254068;22;20015;-84
2024/01/02 05:32:12;;;;;;;6.75;4.63;;;;;;;;;;6254140;22;20069;-83
2024/01/02 05:34:38;;;;;;;5.30;4.00;;;;;;;;;;6279639;22;20427;-83
2024/01/02 05:37:04;;;;;;;7.72;4.80;;;;;;;;;;6307565;22;20021;-83
2024/01/02 05:39:30;;;;;;;5.95;3.90;;;;;;;;;;6254710;22;20057;-83
2024/01/02 05:41:56;;;;;;;6.15;4.22;;;;;;;;;;6281229;22;20023;-82
2024/01/02 05:44:22;;;;;;;6.45;4.40;;;;;;;;;;6253541;22;20069;-83
2024/01/02 05:46:48;;;;;;;5.47;4.03;;;;;;;;;;6254464;22;20015;-83
2024/01/02 05:49:14;;;;;;;5.50;4.10;;;;;;;;;;6254347;22;20012;-83
2024/01/02 05:51:40;;;;;;;3.78;3.05;;;;;;;;;;6279075;22;20016;-83
2024/01/02 05:54:06;;;;;;;6.38;3.60;;;;;;;;;;6253898;22;20015;-83
2024/01/02 05:56:32;;;;;;;5.38;3.30;;;;;;;;;;6279740;22;20023;-83
2024/01/02 05:58:58;;;;;;;4.38;3.03;;;;;;;;;;6279651;22;20099;-82
2024/01/02 06:01:24;;;;;;;4.38;3.05;;;;;;;;;;6249067;22;20459;-82
2024/01/02 06:03:50;;;;;;;3.38;2.65;;;;;;;;;;6273894;22;20091;-83
2024/01/02 06:06:16;;;;;;;4.32;3.00;;;;;;;;;;6249532;22;20023;-82
2024/01/02 06:08:43;;;;;;;4.90;2.85;;;;;;;;;;6274981;22;20069;-82
2024/01/02 06:11:12;;;;;;;3.92;2.72;;;;;;;;;;6275395;22;20061;-83
2024/01/02 06:13:38;;;;;;;4.40;2.67;;;;;;;;;;6274622;22;20016;-83
2024/01/02 06:16:04;;;;;;;2.88;2.50;;;;;;;;;;6249602;22;20091;-83
2024/01/02 06:18:30;;;;;;;3.42;2.78;;;;;;;;;;6277463;22;20023;-83
2024/01/02 06:20:57;;;;;;;3.50;2.60;;;;;;;;;;6249190;22;20019;-83
2024/01/02 06:23:24;;;;;;;3.13;2.17;;;;;;;;;;6275573;22;20015;-82
2024/01/02 06:25:50;;;;;;;3.25;2.20;;;;;;;;;;6275849;22;20077;-82
2024/01/02 06:28:16;;;;;;;3.30;2.10;;;;;;;;;;6250709;22;20115;-83
2024/01/02 06:30:42;;;;;;;3.10;2.13;;;;;;;;;;6251607;22;20391;-83
2024/01/02 06:33:08;;;;;;;3.35;2.20;;;;;;;;;;6252786;22;20023;-83
2024/01/02 06:35:34;;;;;;;3.55;2.40;;;;;;;;;;6252368;22;20026;-84
2024/01/02 06:38:00;;;;;;;2.97;2.55;;;;;;;;;;6277842;22;20054;-84
2024/01/02 06:40:26;;;;;;;3.08;2.45;;;;;;;;;;6252672;22;20333;-83
2024/01/02 06:42:53;;;;;;;3.08;2.45;;;;;;;;;;6277677;22;20011;-83
2024/01/02 06:45:19;;;;;;;2.83;2.30;;;;;;;;;;6277884;22;20027;-84
2024/01/02 06:47:45;;;;;;;3.10;2.45;;;;;;;;;;6252292;22;20313;-84
2024/01/02 06:50:11;;;;;;;2.80;2.30;;;;;;;;;;6278333;22;20039;-84
2024/01/02 06:52:37;;;;;;;3.45;2.22;;;;;;;;;;6252126;22;20243;-84
2024/01/02 06:55:04;;;;;;;2.92;2.30;;;;;;;;;;6252264;22;20042;-84
2024/01/02 06:57:30;;;;;;;3.40;2.20;;;;;;;;;;6278092;22;20015;-84
2024/01/02 06:59:56;;;;;;;3.25;2.20;;;;;;;;;;6277974;22;20012;-84
2024/01/02 07:02:22;;;;;;;4.40;2.40;;;;;;;;;;6252026;22;20098;-84
2024/01/02 07:04:48;;;;;;;2.85;2.35;;;;;;;;;;6251980;22;20027;-83
2024/01/02 07:07:14;;;;;;;2.97;2.30;;;;;;;;;;6252195;22;20462;-83
2024/01/02 07:09:40;;;;;;;4.03;2.50;;;;;;;;;;6252818;22;20098;-83
2024/01/02 07:12:07;;;;;;;2.67;2.40;;;;;;;;;;6252711;22;20022;-83
2024/01/02 07:14:37;;;;;;;3.70;2.60;;;;;;;;;;6279731;22;20023;-84
2024/01/02 07:17:03;;;;;;;2.92;2.50;;;;;;;;;;6251751;22;20019;-83
2024/01/02 07:19:29;;;;;;;3.58;2.90;;;;;;;;;;6252516;22;20502;-84
2024/01/02 07:21:58;;;;;;;2.75;2.40;;;;;;;;;;6252596;22;20038;-84
2024/01/02 07:24:25;;;;;;;3.35;2.60;;;;;;;;;;6250678;22;20011;-83
2024/01/02 07:26:51;;;;;;;3.50;2.42;;;;;;;;;;6250913;22;20500;-83
2024/01/02 07:29:19;;;;;;;2.90;2.50;;;;;;;;;;6251289;22;20019;-84
2024/01/02 07:31:45;;;;;;;3.97;2.72;;;;;;;;;;6250887;22;20019;-83
2024/01/02 07:34:13;;;;;;;3.92;2.80;;;;;;;;;;6251030;22;20019;-84
2024/01/02 07:36:39;;;;;;;3.55;2.92;;;;;;;;;;6278265;22;20016;-82
2024/01/02 07:39:08;;;;;;;4.32;3.10;;;;;;;;;;6278472;22;20092;-84
2024/01/02 07:41:34;;;;;;;3.58;3.10;;;;;;;;;;6250811;22;20023;-84
2024/01/02 07:44:00;;;;;;;4.20;3.13;;;;;;;;;;6250562;22;20019;-84
2024/01/02 07:46:29;;;;;;;4.60;3.53;;;;;;;;;;6251698;22;20016;-83
2024/01/02 07:48:55;;;;;;;6.15;3.60;;;;;;;;;;6250549;22;20047;-85
2024/01/02 07:51:21;;;;;;;4.13;3.20;;;;;;;;;;6250852;22;20024;-84
2024/01/02 07:53:47;;;;;;;4.95;3.70;;;;;;;;;;6277001;22;20082;-84
2024/01/02 07:56:14;;;;;;;4.53;3.25;;;;;;;;;;6250818;22;20452;-84
2024/01/02 07:58:40;;;;;;;4.80;3.30;;;;;;;;;;6250753;22;20054;-84
2024/01/02 08:01:06;;;;;;;7.60;3.83;;;;;;;;;;6254461;22;20023;-84
2024/01/02 08:03:32;;;;;;;7.53;3.90;;;;;;;;;;6255846;22;20030;-84
2024/01/02 08:06:04;;;;;;;5.43;3.83;;;;;;;;;;6256043;22;20015;-85
2024/01/02 08:08:32;;;;;;;7.88;3.85;;;;;;;;;;6256168;22;20514;-85
2024/01/02 08:11:06;;;;;;;10.77;4.10;;;;;;;;;;6255574;22;20019;-85
2024/01/02 08:14:18;;;;;;;;;;;;;;;;;;;;;
2024/01/02 08:17:12;;;;;;;8.95;4.10;;;;;;;;;;6278996;22;20072;-86
2024/01/02 08:19:47;;;;;;;11.82;3.72;;;;;;;;;;6253652;22;20470;-85
2024/01/02 08:22:16;;;;;;;16.50;3.95;;;;;;;;;;6253032;22;20478;-84
2024/01/02 08:24:42;;;;;;;11.77;4.80;;;;;;;;;;6251949;22;20020;-85
2024/01/02 08:27:24;;;;;;;;;;;;;;;;;;;;;
2024/01/02 08:30:00;;;;;;;11.98;3.42;;;;;;;;;;6278882;22;20019;-85
2024/01/02 08:32:29;;;;;;;19.27;3.80;;;;;;;;;;6253412;22;20061;-85
2024/01/02 08:35:13;;;;;;;16.80;3.80;;;;;;;;;;6254447;22;20019;-85
2024/01/02 08:37:45;;;;;;;20.33;3.60;;;;;;;;;;6280494;22;20371;-85
2024/01/02 08:43:35;;;;;;;16.77;3.80;;;;;;;;;;6239807;22;20023;-83
2024/01/02 08:46:02;;;;;;;16.27;3.40;;;;;;;;;;6253519;22;20173;-85
2024/01/02 08:48:33;;;;;;;17.45;3.88;;;;;;;;;;6255794;22;20022;-85
2024/01/02 08:51:02;;;;;;;24.85;3.85;;;;;;;;;;6255577;22;20089;-86
2024/01/02 08:53:39;;;;;;;19.33;3.95;;;;;;;;;;6255188;22;20103;-85
2024/01/02 08:56:17;;;;;;;19.95;3.97;;;;;;;;;;6255500;22;20047;-84
2024/01/02 08:59:11;;;;;;;16.17;3.75;;;;;;;;;;6255298;22;20016;-84
2024/01/02 09:01:57;;;;;;;14.27;3.55;;;;;;;;;;6250047;22;20058;-85
2024/01/02 09:04:49;;;;;;;24.40;4.45;;;;;;;;;;6249946;22;20413;-84
2024/01/02 09:08:00;;;;;;;15.90;3.58;;;;;;;;;;6250044;22;20039;-84
2024/01/02 09:13:50;;;;;;;15.30;3.35;;;;;;;;;;6099393;23;20077;-84
2024/01/02 09:20:06;;;;;;;24.25;4.78;;;;;;;;;;6270973;22;20058;-84
2024/01/02 09:22:37;;;;;;;15.30;3.88;;;;;;;;;;6248736;22;20114;-84
2024/01/02 09:25:25;;;;;;;21.08;4.18;;;;;;;;;;6274291;22;20077;-84
2024/01/02 09:28:12;;;;;;;19.45;4.07;;;;;;;;;;6248268;22;20019;-84
2024/01/02 09:30:38;;;;;;;22.77;4.32;;;;;;;;;;6248096;22;20015;-85
2024/01/02 09:33:24;;;;;;;14.20;3.88;;;;;;;;;;6249016;22;20045;-84
2024/01/02 09:36:32;;;;;;;15.60;4.43;;;;;;;;;;6249421;22;20095;-84
2024/01/02 09:39:10;;;;;;;12.90;3.55;;;;;;;;;;6248104;22;20027;-85
2024/01/02 09:41:46;;;;;;;14.88;3.40;;;;;;;;;;6248229;22;20459;-84
2024/01/02 09:44:57;;;;;;;16.15;3.88;;;;;;;;;;6250531;22;20023;-84
2024/01/02 09:54:35;;;;;;;;;;;;;;;;;;;;;
2024/01/02 10:04:34;;;;;;;13.68;3.55;;;;;;;;;;6152902;23;20029;-83
2024/01/02 10:24:52;;;;;;;;;;;;;;;;;;;;;
2024/01/02 10:51:22;;;;;;;17.60;4.55;;;;;;;;;;6151990;23;20462;-83
2024/01/02 10:57:59;;;;;;;;;;;;;;;;;;;;;
2024/01/02 11:00:50;;;;;;;15.90;3.65;;;;;;;;;;6094917;23;20455;-84
2024/01/02 11:03:30;;;;;;;16.23;5.22;;;;;;;;;;6064880;23;20072;-83
2024/01/02 11:05:59;;;;;;;18.90;4.20;;;;;;;;;;6075622;23;20053;-83
2024/01/02 11:08:32;;;;;;;19.27;4.45;;;;;;;;;;6115257;23;20017;-83
2024/01/02 11:11:21;;;;;;;17.63;3.90;;;;;;;;;;6188438;23;20455;-83
2024/01/02 11:13:57;;;;;;;20.48;4.65;;;;;;;;;;6170502;23;20457;-83
2024/01/02 11:16:32;;;;;;;10.77;3.38;;;;;;;;;;6187925;23;20366;-83
2024/01/02 11:19:13;;;;;;;18.75;4.65;;;;;;;;;;6187906;23;20099;-83
2024/01/02 11:22:17;;;;;;;19.38;4.03;;;;;;;;;;6187813;23;20054;-83
2024/01/02 11:25:24;;;;;;;;;;;;;;;;;;;;;
2024/01/02 11:28:21;;;;;;;17.98;4.45;;;;;;;;;;6178786;23;20470;-84
2024/01/02 11:31:07;;;;;;;15.27;3.58;;;;;;;;;;6153537;22;20065;-83
2024/01/02 11:33:35;;;;;;;19.23;3.78;;;;;;;;;;6250290;22;20020;-82
2024/01/02 11:36:08;;;;;;;16.20;4.10;;;;;;;;;;6250341;22;20015;-83
2024/01/02 11:38:40;;;;;;;20.23;4.38;;;;;;;;;;6249591;22;20022;-82
2024/01/02 11:41:26;;;;;;;16.10;3.92;;;;;;;;;;6251232;22;20494;-82
2024/01/02 11:43:58;;;;;;;12.90;3.30;;;;;;;;;;6250984;22;20056;-83
2024/01/02 11:46:25;;;;;;;13.05;4.65;;;;;;;;;;6250470;22;20023;-82
2024/01/02 11:48:57;;;;;;;14.65;4.40;;;;;;;;;;6251324;22;20451;-82
2024/01/02 11:51:28;;;;;;;17.42;3.78;;;;;;;;;;6250964;22;20027;-84
2024/01/02 11:54:04;;;;;;;19.65;4.25;;;;;;;;;;6250945;22;20012;-83
2024/01/02 11:56:33;;;;;;;16.02;3.97;;;;;;;;;;6251317;22;20134;-83
2024/01/02 11:59:26;;;;;;;20.98;4.10;;;;;;;;;;6251773;22;20051;-83
2024/01/02 12:01:58;;;;;;;19.73;4.43;;;;;;;;;;6204486;22;20317;-83
2024/01/02 12:04:34;;;;;;;18.67;4.70;;;;;;;;;;6254389;22;20024;-83
2024/01/02 12:07:17;;;;;;;20.13;4.57;;;;;;;;;;6254405;22;20086;-83
2024/01/02 12:09:49;;;;;;;15.63;3.92;;;;;;;;;;6254827;22;20030;-83
2024/01/02 12:12:21;;;;;;;18.60;3.92;;;;;;;;;;6254683;22;20024;-83
2024/01/02 12:14:54;;;;;;;16.85;3.90;;;;;;;;;;6254553;22;20012;-83
2024/01/02 12:17:22;;;;;;;17.98;4.18;;;;;;;;;;6254713;22;20015;-83
2024/01/02 12:19:51;;;;;;;17.83;4.68;;;;;;;;;;6254351;22;20028;-83
2024/01/02 12:22:18;;;;;;;14.95;3.95;;;;;;;;;;6254609;22;20069;-83
2024/01/02 12:24:45;;;;;;;16.65;4.53;;;;;;;;;;6256824;22;20011;-83
2024/01/02 12:27:13;;;;;;;21.60;4.63;;;;;;;;;;6279788;22;20041;-84
2024/01/02 12:29:57;;;;;;;18.08;3.75;;;;;;;;;;6254725;22;20026;-83
2024/01/02 12:32:38;;;;;;;15.68;3.97;;;;;;;;;;6254716;22;20391;-83
2024/01/02 12:35:09;;;;;;;17.73;4.20;;;;;;;;;;6253884;22;20054;-83
2024/01/02 12:37:54;;;;;;;18.17;4.10;;;;;;;;;;6254132;22;20011;-83
2024/01/02 12:40:21;;;;;;;24.30;5.10;;;;;;;;;;6254353;22;20019;-82
2024/01/02 12:42:50;;;;;;;17.30;4.93;;;;;;;;;;6253635;22;20049;-83
2024/01/02 12:45:20;;;;;;;23.25;4.88;;;;;;;;;;6254202;22;20015;-83
2024/01/02 12:47:50;;;;;;;19.95;5.25;;;;;;;;;;6254651;22;20019;-83
2024/01/02 12:50:18;;;;;;;20.15;4.28;;;;;;;;;;6254311;22;20011;-83
2024/01/02 12:53:03;;;;;;;19.35;4.63;;;;;;;;;;6254787;22;20016;-83
2024/01/02 12:55:31;;;;;;;23.98;5.47;;;;;;;;;;6255137;22;20049;-83
2024/01/02 12:57:57;;;;;;;17.65;4.80;;;;;;;;;;6254434;22;20515;-83
2024/01/02 13:00:24;;;;;;;20.70;5.53;;;;;;;;;;6254045;22;20019;-83
2024/01/02 13:02:53;;;;;;;25.50;5.13;;;;;;;;;;6253801;22;20065;-84
2024/01/02 13:05:22;;;;;;;26.38;5.95;;;;;;;;;;6251805;22;20026;-83
2024/01/02 13:07:48;;;;;;;25.25;6.55;;;;;;;;;;6251644;22;20026;-83
2024/01/02 13:10:23;;;;;;;22.05;4.78;;;;;;;;;;6251551;22;20011;-83
2024/01/02 13:12:50;;;;;;;21.38;5.50;;;;;;;;;;6252005;22;20051;-83
2024/01/02 13:15:21;;;;;;;28.25;5.68;;;;;;;;;;6251664;22;20015;-83
2024/01/02 13:17:48;;;;;;;24.55;5.35;;;;;;;;;;6254577;22;20466;-83
2024/01/02 13:20:14;;;;;;;22.73;5.10;;;;;;;;;;6282014;22;20124;-83
2024/01/02 13:22:47;;;;;;;21.17;5.82;;;;;;;;;;6257869;22;20031;-83
2024/01/02 13:25:21;;;;;;;24.15;5.75;;;;;;;;;;6255237;22;20015;-83
2024/01/02 13:27:49;;;;;;;33.08;6.47;;;;;;;;;;6256257;22;20448;-83
2024/01/02 13:30:18;;;;;;;23.52;6.10;;;;;;;;;;6255664;22;20503;-83
2024/01/02 13:32:54;;;;;;;29.90;6.40;;;;;;;;;;6254490;22;20075;-83
2024/01/02 13:35:20;;;;;;;29.52;6.40;;;;;;;;;;6254396;22;20416;-84
2024/01/02 13:37:49;;;;;;;30.23;7.15;;;;;;;;;;6254433;22;20011;-83
2024/01/02 13:40:23;;;;;;;24.77;8.48;;;;;;;;;;6257313;22;20037;-84
2024/01/02 13:43:00;;;;;;;29.88;8.98;;;;;;;;;;6257433;22;20112;-84
2024/01/02 13:45:35;;;;;;;31.15;9.07;;;;;;;;;;6257010;22;20103;-84
2024/01/02 13:48:23;;;;;;;34.55;9.73;;;;;;;;;;6256500;22;20012;-84
2024/01/02 13:54:45;;;;;;;41.97;12.27;;;;;;;;;;6308492;22;20022;-87
2024/01/02 13:57:46;;;;;;;;;;;;;;;;;;;;;
2024/01/02 14:00:28;;;;;;;42.50;10.90;;;;;;;;;;6278526;22;20118;-85
2024/01/02 14:02:56;;;;;;;52.72;11.07;;;;;;;;;;6254979;22;20439;-85
2024/01/02 14:05:24;;;;;;;33.15;10.68;;;;;;;;;;6255481;22;20023;-85
2024/01/02 14:07:51;;;;;;;38.17;10.82;;;;;;;;;;6280757;22;20018;-85
2024/01/02 14:10:25;;;;;;;32.17;9.65;;;;;;;;;;6254774;22;20020;-85
2024/01/02 14:12:52;;;;;;;36.15;9.73;;;;;;;;;;6255640;22;20023;-85
2024/01/02 14:15:19;;;;;;;31.70;9.00;;;;;;;;;;6255094;22;20015;-85
2024/01/02 14:17:47;;;;;;;33.20;9.07;;;;;;;;;;6254813;22;20023;-85
2024/01/02 14:20:18;;;;;;;31.63;8.93;;;;;;;;;;6254965;22;20105;-85
2024/01/02 14:23:03;;;;;;;33.33;9.82;;;;;;;;;;6281279;22;20015;-85
2024/01/02 14:25:32;;;;;;;35.25;9.13;;;;;;;;;;6255101;22;20451;-85
2024/01/02 14:28:10;;;;;;;36.40;8.95;;;;;;;;;;6255165;22;20058;-85
2024/01/02 14:30:37;;;;;;;29.45;7.90;;;;;;;;;;6280857;22;20045;-86
2024/01/02 14:33:03;;;;;;;34.38;8.05;;;;;;;;;;6281197;22;20015;-85
2024/01/02 14:35:50;;;;;;;37.22;9.65;;;;;;;;;;6256416;22;20015;-85
2024/01/02 14:38:37;;;;;;;39.90;10.20;;;;;;;;;;6255256;22;20069;-85
2024/01/02 14:41:21;;;;;;;39.75;10.88;;;;;;;;;;6281327;22;20019;-84
2024/01/02 14:43:56;;;;;;;31.10;8.70;;;;;;;;;;6255669;22;20340;-84
2024/01/02 14:46:35;;;;;;;34.03;9.27;;;;;;;;;;6255105;22;20343;-84
2024/01/02 14:49:08;;;;;;;32.90;8.27;;;;;;;;;;6256294;22;20019;-84
2024/01/02 14:51:58;;;;;;;25.40;8.40;;;;;;;;;;6254253;22;20419;-85
2024/01/02 14:54:24;;;;;;;40.67;13.30;;;;;;;;;;6236199;22;20468;-85
2024/01/02 14:56:53;;;;;;;36.42;10.65;;;;;;;;;;6308147;22;20117;-84
2024/01/02 14:59:22;;;;;;;31.05;8.43;;;;;;;;;;6281285;22;20326;-84
2024/01/02 15:02:10;;;;;;;29.77;8.27;;;;;;;;;;6280685;22;20452;-84
2024/01/02 15:04:54;;;;;;;43.05;8.57;;;;;;;;;;6255667;22;20023;-83
2024/01/02 15:07:27;;;;;;;28.10;8.45;;;;;;;;;;6255013;22;20018;-84
2024/01/02 15:10:13;;;;;;;26.55;7.78;;;;;;;;;;6280556;22;20032;-85
2024/01/02 15:12:48;;;;;;;26.35;7.45;;;;;;;;;;6255821;22;20015;-84
2024/01/02 15:15:30;;;;;;;28.40;9.02;;;;;;;;;;6255512;22;20019;-86
2024/01/02 15:18:02;;;;;;;29.17;7.85;;;;;;;;;;6254730;22;20068;-86
2024/01/02 15:20:35;;;;;;;22.83;7.45;;;;;;;;;;6277304;22;20022;-84
2024/01/02 15:23:09;;;;;;;25.75;8.32;;;;;;;;;;6276378;22;20521;-84
2024/01/02 15:25:35;;;;;;;25.40;9.85;;;;;;;;;;6251024;22;20068;-84
2024/01/02 15:28:12;;;;;;;21.88;9.00;;;;;;;;;;6250867;22;20019;-86
2024/01/02 15:30:41;;;;;;;24.30;8.60;;;;;;;;;;6277635;22;20027;-84
2024/01/02 15:33:27;;;;;;;23.58;8.88;;;;;;;;;;6255523;22;20011;-83
2024/01/02 15:36:05;;;;;;;21.42;8.32;;;;;;;;;;6255000;22;20531;-83
2024/01/02 15:38:32;;;;;;;22.73;8.18;;;;;;;;;;6255777;22;20011;-83
2024/01/02 15:41:00;;;;;;;25.77;8.68;;;;;;;;;;6255318;22;20521;-83
2024/01/02 15:43:28;;;;;;;19.80;7.43;;;;;;;;;;6255483;22;20086;-84
2024/01/02 15:46:05;;;;;;;21.40;7.97;;;;;;;;;;6254574;22;20373;-84
2024/01/02 15:48:34;;;;;;;24.73;8.95;;;;;;;;;;6255486;22;20085;-83
2024/01/02 15:51:22;;;;;;;20.77;7.68;;;;;;;;;;6254921;22;20042;-84
2024/01/02 15:53:52;;;;;;;17.08;7.03;;;;;;;;;;6255287;22;20015;-84
2024/01/02 15:56:25;;;;;;;20.23;7.95;;;;;;;;;;6254352;22;20093;-84
2024/01/02 15:59:10;;;;;;;20.40;8.48;;;;;;;;;;6254837;22;20054;-84
2024/01/02 16:01:37;;;;;;;23.85;8.02;;;;;;;;;;6254027;22;20019;-84
2024/01/02 16:04:06;;;;;;;24.33;10.82;;;;;;;;;;6254307;22;20046;-84
2024/01/02 16:06:55;;;;;;;20.85;9.70;;;;;;;;;;6254052;22;20019;-84
2024/01/02 16:09:41;;;;;;;17.20;7.65;;;;;;;;;;6254466;22;20057;-84
2024/01/02 16:12:26;;;;;;;21.92;9.40;;;;;;;;;;6254473;22;20023;-85
2024/01/02 16:14:59;;;;;;;16.83;9.38;;;;;;;;;;6254599;22;20044;-84
2024/01/02 16:17:51;;;;;;;17.30;8.90;;;;;;;;;;6255135;22;20326;-84